This is the latest recevied weather packets stored in our database for station/object N2PPN. If no packets are shown the sender has not sent any weather packets the latest 10 day(s).
| Time | Temp. | Humidity | Pressure | Rain* | Wind** | Luminosity | Snow |
|---|---|---|---|---|---|---|---|
| 1777481261 | 12.78° C | 76% | 1018.1 hPa | 0 mm | - | 461 W/m² | - |
| 1777480958 | 12.78° C | 76% | 1018.3 hPa | 0 mm | - | 785 W/m² | - |
| 1777480654 | 12.78° C | 75% | 1018.4 hPa | 0 mm | - | 688 W/m² | - |
| 1777480351 | 13.33° C | 74% | 1018.2 hPa | 0 mm | - | 647 W/m² | - |
| 1777480047 | 12.78° C | 74% | 1018.3 hPa | 0 mm | - | 568 W/m² | - |
| 1777479743 | 12.78° C | 72% | 1018.4 hPa | 0 mm | - | 661 W/m² | - |
| 1777479442 | 12.78° C | 72% | 1018.5 hPa | 0 mm | - | 740 W/m² | - |
| 1777479138 | 13.33° C | 71% | 1018.6 hPa | 0 mm | - | 741 W/m² | - |
| 1777478835 | 12.78° C | 72% | 1018.7 hPa | 0 mm | - | 785 W/m² | - |
| 1777478531 | 12.78° C | 72% | 1018.6 hPa | 0 mm | - | 375 W/m² | - |
| 1777478228 | 13.89° C | 68% | 1018.6 hPa | 0 mm | - | 315 W/m² | - |
| 1777477924 | 13.33° C | 68% | 1018.7 hPa | 0 mm | - | 697 W/m² | - |
| 1777477619 | 13.33° C | 69% | 1018.7 hPa | 0 mm | - | 746 W/m² | - |
| 1777477316 | 13.33° C | 69% | 1018.7 hPa | 0 mm | - | 280 W/m² | - |
| 1777477013 | 13.89° C | 67% | 1018.8 hPa | 0 mm | - | 595 W/m² | - |
| 1777476711 | 13.33° C | 69% | 1018.4 hPa | 0 mm | - | 587 W/m² | - |
| 1777476407 | 13.89° C | 68% | 1018.6 hPa | 0 mm | - | 342 W/m² | - |
| 1777476103 | 13.89° C | 68% | 1018.4 hPa | 0 mm | - | 652 W/m² | - |
| 1777475798 | 13.89° C | 68% | 1018.8 hPa | 0 mm | - | 321 W/m² | - |
| 1777475495 | 14.44° C | 67% | 1018.8 hPa | 0 mm | - | 649 W/m² | - |
| 1777475191 | 14.44° C | 67% | 1018.7 hPa | 0 mm | - | 431 W/m² | - |
| 1777474887 | 14.44° C | 67% | 1018.5 hPa | 0 mm | - | 471 W/m² | - |
| 1777474583 | 14.44° C | 68% | 1018.5 hPa | 0 mm | - | 655 W/m² | - |
| 1777474280 | 15° C | 68% | 1018.6 hPa | 0 mm | - | 624 W/m² | - |
| 1777473977 | 14.44° C | 67% | 1018.7 hPa | 0 mm | - | 647 W/m² | - |
* Rain latest hour (hover to see other rain measurements)
** Current wind speed in m/s (hover to see current wind gust speed)